This is the latest recevied weather packets stored in our database for station/object HS5XHC-1. If no packets are shown the sender has not sent any weather packets the latest 10 day(s).
| Time | Temp. | Humidity | Pressure | Rain* | Wind** | Luminosity | Snow |
|---|---|---|---|---|---|---|---|
| 1777392565 | 26.67° C | 52% | 969 hPa | - | - | 0 W/m² | - |
| 1777391940 | 26.67° C | 51% | 969 hPa | - | - | 0 W/m² | - |
| 1777391316 | 26.67° C | 52% | 969 hPa | - | - | 0 W/m² | - |
| 1777390692 | 26.67° C | 53% | 969 hPa | - | - | 0 W/m² | - |
| 1777390068 | 26.67° C | 52% | 969 hPa | - | - | 0 W/m² | - |
| 1777389444 | 26.11° C | 53% | 969 hPa | - | - | 0 W/m² | - |
| 1777388820 | 26.11° C | 55% | 969 hPa | - | - | 0 W/m² | - |
| 1777388196 | 25° C | 57% | 970 hPa | - | - | 0 W/m² | - |
| 1777387572 | 25.56° C | 56% | 970 hPa | - | - | 0 W/m² | - |
| 1777386948 | 25.56° C | 55% | 970 hPa | - | - | 0 W/m² | - |
| 1777386324 | 25.56° C | 57% | 970 hPa | - | - | 0 W/m² | - |
| 1777385700 | 24.44° C | 61% | 969 hPa | - | - | 0 W/m² | - |
| 1777385076 | 25° C | 60% | 969 hPa | - | - | 0 W/m² | - |
| 1777384452 | 25.56° C | 55% | 969 hPa | - | - | 0 W/m² | - |
| 1777383827 | 27.22° C | 51% | 969 hPa | - | - | 0 W/m² | - |
| 1777383203 | 27.22° C | 50% | 969 hPa | - | - | 0 W/m² | - |
| 1777382579 | 26.67° C | 51% | 968 hPa | - | - | 0 W/m² | - |
| 1777381955 | 27.22° C | 49% | 968 hPa | - | - | 0 W/m² | - |
| 1777381331 | 27.78° C | 48% | 968 hPa | - | - | 0 W/m² | - |
| 1777380707 | 27.78° C | 49% | 967 hPa | - | - | 0 W/m² | - |
| 1777380083 | 27.78° C | 49% | 967 hPa | - | - | 0 W/m² | - |
| 1777379459 | 27.78° C | 49% | 967 hPa | - | - | 0 W/m² | - |
| 1777378835 | 27.78° C | 50% | 967 hPa | - | - | 0 W/m² | - |
| 1777378211 | 27.78° C | 50% | 966 hPa | - | - | 0 W/m² | - |
| 1777377588 | 27.78° C | 50% | 966 hPa | - | - | 0 W/m² | - |
* Rain since midnight (hover to see other rain measurements)
** Current wind speed in m/s (hover to see current wind gust speed)